Time;durP1;ratioP1;P1;durP2;ratioP2;P2;SDS_P1;SDS_P2;PMS_P1;PMS_P2;Temp;Humidity;BMP_temperature;BMP_pressure;BME280_temperature;BME280_humidity;BME280_pressure;Samples;Min_cycle;Max_cycle;Signal;HPM_P1;HPM_P2
2022/09/13 00:01:58;;;;;;;15.60;12.13;;;26.90;99.90;;;;;;4142600;28;20053;-71
2022/09/13 00:04:03;;;;;;;16.83;12.88;;;26.90;99.90;;;;;;4143047;28;20049;-70
2022/09/13 00:06:17;;;;;;;15.07;13.45;;;27.00;99.90;;;;;;4143037;28;20497;-70
2022/09/13 00:08:22;;;;;;;17.30;14.65;;;27.00;99.90;;;;;;4143113;28;20058;-70
2022/09/13 00:10:27;;;;;;;15.40;13.77;;;26.90;99.90;;;;;;4141495;28;20052;-70
2022/09/13 00:12:34;;;;;;;13.85;12.48;;;26.90;99.90;;;;;;4142419;28;20819;-70
2022/09/13 00:14:38;;;;;;;16.48;14.77;;;27.00;99.90;;;;;;4157338;28;20073;-70
2022/09/13 00:16:43;;;;;;;15.65;13.85;;;27.10;99.90;;;;;;4142210;28;20049;-70
2022/09/13 00:18:52;;;;;;;20.83;16.38;;;27.20;99.90;;;;;;4142510;28;20132;-70
2022/09/13 00:21:12;;;;;;;20.10;15.32;;;27.10;99.90;;;;;;4140640;28;20073;-70
2022/09/13 00:23:17;;;;;;;19.17;15.00;;;27.10;99.90;;;;;;4144761;28;20702;-70
2022/09/13 00:25:25;;;;;;;25.67;16.42;;;27.20;99.90;;;;;;4110191;28;20098;-70
2022/09/13 00:27:31;;;;;;;21.80;15.30;;;27.30;99.90;;;;;;4144943;28;20049;-69
2022/09/13 00:29:36;;;;;;;17.33;14.88;;;27.40;99.90;;;;;;4144971;28;20057;-71
2022/09/13 00:31:42;;;;;;;16.08;13.38;;;27.40;99.90;;;;;;4144073;28;20054;-72
2022/09/13 00:33:49;;;;;;;16.13;13.00;;;27.40;99.90;;;;;;4137392;28;20050;-71
2022/09/13 00:35:54;;;;;;;16.00;12.20;;;27.50;99.90;;;;;;4144890;28;20050;-70
2022/09/13 00:38:00;;;;;;;14.57;11.90;;;27.40;99.90;;;;;;4144936;28;20100;-71
2022/09/13 00:40:06;;;;;;;16.83;13.05;;;27.40;99.90;;;;;;4144119;28;20136;-72
2022/09/13 00:42:14;;;;;;;13.07;11.65;;;27.50;99.90;;;;;;4145080;28;20057;-72
2022/09/13 00:44:45;;;;;;;16.02;11.18;;;27.50;99.90;;;;;;4142432;28;20045;-71
2022/09/13 00:46:49;;;;;;;15.50;10.63;;;27.60;99.90;;;;;;4144571;28;20060;-71
2022/09/13 00:48:57;;;;;;;12.10;10.13;;;27.60;99.90;;;;;;4157586;28;20053;-72
2022/09/13 00:51:06;;;;;;;14.48;9.57;;;27.60;99.90;;;;;;4144696;28;20756;-71
2022/09/13 00:53:19;;;;;;;12.85;9.70;;;27.70;99.90;;;;;;4143541;28;20046;-72
2022/09/13 00:55:40;;;;;;;10.75;9.63;;;27.50;99.90;;;;;;4145029;28;20046;-71
2022/09/13 00:57:48;;;;;;;11.27;9.40;;;27.50;99.90;;;;;;4144159;28;20434;-71
2022/09/13 01:00:08;;;;;;;11.95;9.60;;;27.50;99.90;;;;;;4144085;28;20551;-71
2022/09/13 01:02:13;;;;;;;11.30;9.07;;;27.50;99.90;;;;;;4177645;28;20116;-71
2022/09/13 01:04:22;;;;;;;10.55;8.45;;;27.50;99.90;;;;;;4128208;28;20042;-71
2022/09/13 01:06:32;;;;;;;8.88;7.32;;;27.70;99.90;;;;;;4147158;28;20505;-71
2022/09/13 01:08:37;;;;;;;8.55;7.47;;;27.80;99.90;;;;;;4146847;28;20085;-71
2022/09/13 01:10:44;;;;;;;9.02;7.10;;;27.80;99.90;;;;;;4147224;28;20046;-70
2022/09/13 01:13:16;;;;;;;7.85;6.78;;;27.70;99.90;;;;;;4147147;28;20053;-71
2022/09/13 01:15:21;;;;;;;7.60;6.28;;;27.80;99.90;;;;;;4173065;28;20058;-71
2022/09/13 01:17:29;;;;;;;8.70;6.72;;;27.90;99.90;;;;;;4128825;28;20402;-71
2022/09/13 01:19:34;;;;;;;8.68;6.93;;;28.00;99.90;;;;;;4147232;28;20405;-71
2022/09/13 01:22:09;;;;;;;10.35;6.97;;;27.90;99.90;;;;;;4161915;28;20116;-71
2022/09/13 01:24:47;;;;;;;8.73;6.28;;;28.00;99.90;;;;;;4131180;28;20045;-71
2022/09/13 01:27:28;;;;;;;6.93;6.18;;;28.00;99.90;;;;;;4141798;28;20050;-71
2022/09/13 01:30:00;;;;;;;8.30;7.35;;;28.10;99.90;;;;;;4147476;28;20496;-71
2022/09/13 01:32:17;;;;;;;10.15;7.93;;;28.10;99.90;;;;;;4145937;28;20057;-71
2022/09/13 01:34:53;;;;;;;10.52;7.22;;;28.20;99.90;;;;;;4161487;28;20057;-71
2022/09/13 01:37:17;;;;;;;9.82;7.32;;;28.00;99.90;;;;;;4147179;28;20416;-68
2022/09/13 01:39:54;;;;;;;10.50;8.10;;;28.10;99.90;;;;;;4147041;28;20133;-71
2022/09/13 01:42:16;;;;;;;9.57;7.45;;;28.30;99.90;;;;;;4162090;28;20118;-71
2022/09/13 01:44:45;;;;;;;8.20;6.90;;;28.20;99.90;;;;;;4146551;28;20125;-71
2022/09/13 01:47:05;;;;;;;9.57;7.70;;;28.10;99.90;;;;;;4147017;28;20050;-71
2022/09/13 01:49:32;;;;;;;7.88;6.88;;;28.10;99.90;;;;;;4146373;28;20100;-70
2022/09/13 01:52:10;;;;;;;12.65;8.48;;;28.40;99.90;;;;;;4146947;28;20053;-70
2022/09/13 01:54:46;;;;;;;15.98;10.38;;;28.50;99.90;;;;;;4160988;28;20068;-69
2022/09/13 01:57:08;;;;;;;15.57;10.35;;;28.80;99.90;;;;;;4130591;28;20062;-70
2022/09/13 01:59:31;;;;;;;15.90;10.18;;;28.80;99.90;;;;;;4130532;28;20046;-70
2022/09/13 02:02:15;;;;;;;12.02;8.13;;;28.80;99.90;;;;;;4130369;28;20409;-70
2022/09/13 02:04:29;;;;;;;9.80;7.35;;;28.80;99.90;;;;;;4130142;28;20046;-71
2022/09/13 02:06:41;;;;;;;8.50;6.18;;;28.90;99.90;;;;;;4130239;28;20097;-72
2022/09/13 02:09:00;;;;;;;6.88;5.90;;;28.70;99.90;;;;;;4130614;28;20493;-71
2022/09/13 02:11:11;;;;;;;7.25;5.80;;;28.60;99.90;;;;;;4129482;28;20112;-70
2022/09/13 02:13:18;;;;;;;9.35;6.43;;;28.70;99.90;;;;;;4161619;28;20488;-71
2022/09/13 02:15:30;;;;;;;8.57;5.25;;;28.70;99.90;;;;;;4138042;28;20053;-71
2022/09/13 02:17:40;;;;;;;6.60;5.10;;;28.80;99.90;;;;;;4146847;28;20046;-71
2022/09/13 02:19:59;;;;;;;5.97;5.18;;;28.80;99.90;;;;;;4146103;28;20042;-72
2022/09/13 02:22:05;;;;;;;6.70;5.13;;;28.80;99.90;;;;;;4148385;28;20057;-76
2022/09/13 02:24:17;;;;;;;5.85;5.15;;;28.80;99.90;;;;;;4149804;28;20115;-76
2022/09/13 02:26:21;;;;;;;5.35;4.05;;;28.80;99.90;;;;;;4148985;28;20048;-76
2022/09/13 02:28:31;;;;;;;6.82;4.93;;;28.70;99.90;;;;;;4180624;28;20041;-78
2022/09/13 02:30:40;;;;;;;6.25;4.43;;;28.80;99.90;;;;;;4149195;28;20042;-77
2022/09/13 02:33:13;;;;;;;5.03;4.07;;;28.90;99.90;;;;;;4148751;28;20073;-75
2022/09/13 02:35:34;;;;;;;7.25;4.28;;;29.00;99.90;;;;;;4179700;28;20075;-76
2022/09/13 02:37:44;;;;;;;6.20;4.22;;;29.10;99.90;;;;;;4148464;28;20672;-76
2022/09/13 02:39:55;;;;;;;4.18;3.45;;;29.00;99.90;;;;;;4148446;28;20053;-77
2022/09/13 02:42:19;;;;;;;4.63;3.83;;;28.90;99.90;;;;;;4148200;28;20050;-77
2022/09/13 02:44:45;;;;;;;6.45;4.15;;;29.00;99.90;;;;;;4149259;28;20359;-78
2022/09/13 02:47:21;;;;;;;6.18;4.32;;;29.10;99.90;;;;;;4164937;28;20037;-78
2022/09/13 02:49:50;;;;;;;5.40;4.07;;;29.10;99.90;;;;;;4149649;28;20046;-75
2022/09/13 02:52:13;;;;;;;5.45;4.25;;;28.90;99.90;;;;;;4148774;28;20107;-77
2022/09/13 02:54:33;;;;;;;6.68;4.63;;;28.90;99.90;;;;;;4147785;28;20069;-75
2022/09/13 02:56:51;;;;;;;5.43;4.72;;;28.90;99.90;;;;;;4148316;28;20049;-75
2022/09/13 02:59:15;;;;;;;5.80;3.58;;;29.00;99.90;;;;;;4148259;28;20046;-74
2022/09/13 03:01:20;;;;;;;7.05;3.75;;;29.00;99.90;;;;;;4148758;28;20523;-75
2022/09/13 03:03:28;;;;;;;4.32;3.53;;;29.10;99.90;;;;;;4163913;28;20534;-74
2022/09/13 03:05:32;;;;;;;5.10;3.55;;;29.10;99.90;;;;;;4164642;28;20075;-75
2022/09/13 03:07:37;;;;;;;5.15;3.80;;;29.10;99.90;;;;;;4148842;28;20382;-75
2022/09/13 03:09:52;;;;;;;6.45;3.88;;;29.10;99.90;;;;;;4148866;28;20081;-75
2022/09/13 03:12:23;;;;;;;5.38;3.70;;;29.10;99.90;;;;;;4163857;28;20057;-75
2022/09/13 03:14:56;;;;;;;4.72;3.45;;;29.10;99.90;;;;;;4149107;28;20115;-74
2022/09/13 03:17:27;;;;;;;5.07;3.58;;;29.20;99.90;;;;;;4149297;28;20061;-77
2022/09/13 03:20:06;;;;;;;3.70;3.30;;;29.20;99.90;;;;;;4148523;28;20041;-77
2022/09/13 03:22:51;;;;;;;5.93;3.15;;;29.40;99.90;;;;;;4147581;28;20076;-77
2022/09/13 03:25:35;;;;;;;4.13;3.50;;;29.50;99.90;;;;;;4148649;28;20046;-74
2022/09/13 03:28:21;;;;;;;4.82;2.92;;;29.60;99.90;;;;;;4148625;28;20112;-74
2022/09/13 03:30:27;;;;;;;3.75;3.10;;;29.90;99.90;;;;;;4148734;28;20042;-74
2022/09/13 03:32:56;;;;;;;3.95;2.80;;;30.10;99.90;;;;;;4164226;28;20041;-75
2022/09/13 03:35:34;;;;;;;2.92;2.53;;;30.30;99.90;;;;;;4146791;28;20042;-74
2022/09/13 03:38:08;;;;;;;3.08;2.60;;;30.10;99.90;;;;;;4148305;28;20065;-75
2022/09/13 03:40:20;;;;;;;4.05;2.75;;;30.10;99.90;;;;;;4178015;28;20128;-74
2022/09/13 03:42:51;;;;;;;3.45;2.80;;;30.10;99.90;;;;;;4147878;28;20048;-75
2022/09/13 03:44:55;;;;;;;3.22;2.75;;;29.90;99.90;;;;;;4147646;28;20133;-74
2022/09/13 03:47:04;;;;;;;4.68;3.03;;;29.80;99.90;;;;;;4148445;28;20092;-74
2022/09/13 03:49:14;;;;;;;4.25;2.97;;;29.90;99.90;;;;;;4148704;28;20443;-73
2022/09/13 03:51:18;;;;;;;6.18;2.88;;;30.00;99.90;;;;;;4148779;28;20488;-74
2022/09/13 03:53:25;;;;;;;4.57;2.78;;;30.10;99.90;;;;;;4148512;28;20088;-74
2022/09/13 03:55:30;;;;;;;3.95;2.67;;;30.30;99.90;;;;;;4164477;28;20054;-75
2022/09/13 03:57:35;;;;;;;4.68;2.50;;;30.40;99.90;;;;;;4183896;28;20061;-75
2022/09/13 03:59:47;;;;;;;3.13;2.78;;;30.50;99.90;;;;;;4150934;28;20125;-74
2022/09/13 04:01:51;;;;;;;4.88;2.70;;;30.60;99.90;;;;;;4151132;28;20136;-74
2022/09/13 04:03:57;;;;;;;3.92;2.92;;;30.70;99.90;;;;;;4151931;28;20404;-75
2022/09/13 04:06:06;;;;;;;5.47;2.88;;;30.80;99.90;;;;;;4152159;28;20042;-74
2022/09/13 04:08:10;;;;;;;4.88;2.85;;;30.80;99.90;;;;;;4152207;28;20476;-74
2022/09/13 04:10:15;;;;;;;3.85;2.50;;;30.90;99.90;;;;;;4150365;28;20096;-74
2022/09/13 04:12:23;;;;;;;3.40;2.50;;;30.90;99.90;;;;;;4149550;28;20053;-75
2022/09/13 04:14:28;;;;;;;3.50;2.42;;;30.90;99.90;;;;;;4165204;28;20570;-74
2022/09/13 04:16:32;;;;;;;7.25;2.60;;;30.90;99.90;;;;;;4150518;28;20133;-76
2022/09/13 04:18:36;;;;;;;3.55;2.13;;;30.80;99.90;;;;;;4151894;28;20080;-76
2022/09/13 04:20:41;;;;;;;4.93;2.83;;;30.70;99.90;;;;;;4151210;28;20065;-76
2022/09/13 04:22:52;;;;;;;2.92;2.55;;;30.70;99.90;;;;;;4151403;28;20389;-76
2022/09/13 04:25:00;;;;;;;4.82;2.47;;;30.60;99.90;;;;;;4151639;28;20422;-76
2022/09/13 04:27:06;;;;;;;5.22;2.92;;;30.50;99.90;;;;;;4167137;28;20046;-77
2022/09/13 04:29:10;;;;;;;3.13;2.72;;;30.60;99.90;;;;;;4152013;28;20050;-76
2022/09/13 04:31:17;;;;;;;3.08;2.30;;;30.70;99.90;;;;;;4151875;28;20494;-77
2022/09/13 04:33:22;;;;;;;4.40;2.72;;;30.80;99.90;;;;;;4150714;28;20053;-75
2022/09/13 04:35:27;;;;;;;3.22;2.47;;;31.00;99.90;;;;;;4149198;28;20049;-75
2022/09/13 04:37:37;;;;;;;4.30;2.35;;;31.00;99.90;;;;;;4150589;28;20060;-74
2022/09/13 04:39:44;;;;;;;3.08;2.40;;;31.00;99.90;;;;;;4165469;28;20056;-74
2022/09/13 04:41:50;;;;;;;3.85;2.47;;;30.90;99.90;;;;;;4150531;28;20053;-74
2022/09/13 04:43:59;;;;;;;3.38;2.00;;;30.80;99.90;;;;;;4165984;28;20046;-75
2022/09/13 04:46:04;;;;;;;4.32;2.58;;;30.80;99.90;;;;;;4150191;28;20085;-74
2022/09/13 04:48:08;;;;;;;3.17;2.42;;;30.80;99.90;;;;;;4149846;28;20042;-76
2022/09/13 04:50:17;;;;;;;2.78;2.25;;;30.80;99.90;;;;;;4149896;28;20125;-74
2022/09/13 04:52:24;;;;;;;2.75;2.28;;;30.90;99.90;;;;;;4149725;28;20061;-74
2022/09/13 04:54:30;;;;;;;4.38;2.40;;;30.90;99.90;;;;;;4165444;28;20417;-76
2022/09/13 04:56:36;;;;;;;4.63;2.38;;;30.90;99.90;;;;;;4150980;28;20586;-76
2022/09/13 04:58:41;;;;;;;3.78;2.40;;;30.90;99.90;;;;;;4150038;28;20140;-76
2022/09/13 05:00:45;;;;;;;2.90;2.08;;;31.00;99.90;;;;;;4150524;28;20069;-74
2022/09/13 05:02:55;;;;;;;2.35;1.77;;;31.00;99.90;;;;;;4150197;28;20523;-76
2022/09/13 05:05:00;;;;;;;3.78;2.10;;;30.80;98.90;;;;;;4151017;28;20047;-76
2022/09/13 05:07:05;;;;;;;2.08;1.73;;;30.80;98.60;;;;;;4150266;28;20092;-75
2022/09/13 05:09:13;;;;;;;3.33;1.48;;;30.90;98.30;;;;;;4150893;28;20436;-76
2022/09/13 05:11:18;;;;;;;2.13;1.77;;;31.10;98.60;;;;;;4166036;28;20109;-77
2022/09/13 05:13:22;;;;;;;2.60;1.75;;;31.20;98.90;;;;;;4166301;28;20076;-77
2022/09/13 05:15:29;;;;;;;2.42;1.63;;;31.20;98.10;;;;;;4166089;28;20045;-77
2022/09/13 05:17:34;;;;;;;3.03;1.75;;;31.30;99.10;;;;;;4151303;28;20046;-77
2022/09/13 05:19:38;;;;;;;3.40;1.52;;;31.20;97.60;;;;;;4182023;28;20103;-76
2022/09/13 05:21:45;;;;;;;1.58;1.38;;;31.20;98.20;;;;;;4166056;28;20041;-76
2022/09/13 05:23:50;;;;;;;2.28;1.67;;;31.40;97.90;;;;;;4151483;28;20068;-76
2022/09/13 05:26:00;;;;;;;2.97;2.17;;;31.50;98.40;;;;;;4151136;28;20049;-76
2022/09/13 05:28:08;;;;;;;2.72;1.70;;;31.50;97.90;;;;;;4150825;28;20080;-76
2022/09/13 05:30:13;;;;;;;2.53;1.70;;;31.60;97.90;;;;;;4165843;28;20099;-76
2022/09/13 05:32:18;;;;;;;2.47;1.83;;;31.60;97.40;;;;;;4150881;28;20069;-77
2022/09/13 05:34:24;;;;;;;3.28;1.88;;;31.60;97.20;;;;;;4150333;28;20092;-76
2022/09/13 05:36:29;;;;;;;2.75;1.50;;;31.60;97.60;;;;;;4165558;28;20052;-77
2022/09/13 05:38:33;;;;;;;3.25;1.90;;;31.60;97.50;;;;;;4150439;28;20038;-77
2022/09/13 05:40:41;;;;;;;2.83;2.20;;;31.70;97.10;;;;;;4150659;28;20133;-77
2022/09/13 05:42:45;;;;;;;3.17;2.00;;;31.70;97.40;;;;;;4150163;28;20072;-76
2022/09/13 05:44:50;;;;;;;2.53;1.88;;;31.60;97.50;;;;;;4150310;28;20130;-77
2022/09/13 05:46:58;;;;;;;2.55;1.92;;;31.70;97.30;;;;;;4150384;28;20405;-77
2022/09/13 05:49:02;;;;;;;2.42;1.60;;;31.70;96.50;;;;;;4165693;28;20380;-76
2022/09/13 05:51:16;;;;;;;4.93;1.90;;;31.80;97.40;;;;;;4150492;28;20038;-76
2022/09/13 05:53:25;;;;;;;1.90;1.40;;;31.70;96.40;;;;;;4149221;28;20053;-77
2022/09/13 05:55:29;;;;;;;2.95;1.60;;;31.60;95.70;;;;;;4164963;28;20471;-77
2022/09/13 05:57:36;;;;;;;2.50;1.40;;;31.60;96.10;;;;;;4149217;28;20530;-76
2022/09/13 05:59:44;;;;;;;2.33;1.67;;;31.70;96.00;;;;;;4132470;28;20070;-77
2022/09/13 06:01:48;;;;;;;3.05;2.03;;;31.80;95.90;;;;;;4149453;28;20423;-76
2022/09/13 06:03:56;;;;;;;3.28;1.75;;;31.80;95.70;;;;;;4149287;28;20049;-77
2022/09/13 06:06:04;;;;;;;2.40;1.70;;;31.80;95.90;;;;;;4149303;28;20042;-77
2022/09/13 06:08:08;;;;;;;3.10;1.52;;;31.90;95.90;;;;;;4149206;28;20044;-76
2022/09/13 06:10:13;;;;;;;3.00;1.50;;;31.90;95.20;;;;;;4149490;28;20139;-76
2022/09/13 06:12:20;;;;;;;2.72;1.52;;;31.70;95.80;;;;;;4163976;28;20061;-76
2022/09/13 06:14:24;;;;;;;2.20;1.40;;;31.80;95.30;;;;;;4149711;28;20057;-76
2022/09/13 06:16:29;;;;;;;1.65;1.30;;;31.90;95.40;;;;;;4149171;28;20564;-76
2022/09/13 06:18:38;;;;;;;1.67;1.30;;;32.00;94.80;;;;;;4148705;28;20141;-76
2022/09/13 06:20:43;;;;;;;1.67;1.42;;;31.90;94.30;;;;;;4148297;28;20455;-76
2022/09/13 06:22:48;;;;;;;2.92;1.30;;;31.90;94.10;;;;;;4148892;28;20052;-76
2022/09/13 06:24:57;;;;;;;2.47;1.40;;;31.90;94.10;;;;;;4149115;28;20064;-77
2022/09/13 06:27:01;;;;;;;2.05;1.45;;;32.00;94.10;;;;;;4148753;28;20660;-76
2022/09/13 06:29:05;;;;;;;2.35;1.52;;;32.10;94.10;;;;;;4149033;28;20493;-76
2022/09/13 06:31:16;;;;;;;1.90;1.20;;;32.10;94.00;;;;;;4148668;28;20413;-76
2022/09/13 06:33:20;;;;;;;2.72;1.23;;;32.20;93.70;;;;;;4148905;28;20057;-76
2022/09/13 06:35:25;;;;;;;3.25;1.20;;;32.20;93.20;;;;;;4147548;28;20088;-76
2022/09/13 06:37:34;;;;;;;2.08;1.30;;;32.20;92.40;;;;;;4147707;28;20133;-76
2022/09/13 06:39:38;;;;;;;1.67;1.27;;;32.20;92.30;;;;;;4178883;28;20045;-76
2022/09/13 06:41:43;;;;;;;1.90;1.13;;;32.20;92.60;;;;;;4162723;28;20045;-76
2022/09/13 06:43:53;;;;;;;1.60;1.20;;;32.30;93.10;;;;;;4147779;28;20050;-76
2022/09/13 06:46:11;;;;;;;1.33;1.23;;;32.40;93.70;;;;;;4148352;28;20072;-76
2022/09/13 06:48:17;;;;;;;1.25;1.13;;;32.50;93.70;;;;;;4146630;28;20057;-77
2022/09/13 06:50:23;;;;;;;1.73;1.30;;;32.60;93.80;;;;;;4147801;28;20405;-77
2022/09/13 06:52:27;;;;;;;2.60;1.30;;;32.70;93.30;;;;;;4147826;28;20115;-76
2022/09/13 06:54:32;;;;;;;1.73;1.20;;;32.70;92.90;;;;;;4146771;28;20108;-77
2022/09/13 06:56:38;;;;;;;2.17;1.50;;;32.70;93.10;;;;;;4147400;28;20041;-77
2022/09/13 06:58:44;;;;;;;1.45;1.25;;;32.80;92.60;;;;;;4146899;28;20556;-77
2022/09/13 07:00:48;;;;;;;1.48;1.23;;;32.80;92.70;;;;;;4178711;28;20049;-75
2022/09/13 07:03:01;;;;;;;1.70;1.20;;;32.80;92.80;;;;;;4145821;28;20052;-76
2022/09/13 07:05:06;;;;;;;2.22;1.48;;;32.80;92.80;;;;;;4145821;28;20054;-76
2022/09/13 07:07:10;;;;;;;1.52;1.40;;;32.90;93.00;;;;;;4145702;28;20397;-75
2022/09/13 07:09:19;;;;;;;3.20;1.20;;;32.90;93.20;;;;;;4145974;28;20389;-76
2022/09/13 07:11:25;;;;;;;2.42;1.42;;;33.00;92.50;;;;;;4148302;28;20076;-76
2022/09/13 07:13:29;;;;;;;3.08;1.50;;;33.00;92.70;;;;;;4148529;28;20046;-76
2022/09/13 07:15:38;;;;;;;1.92;1.00;;;32.90;91.50;;;;;;4144600;28;20053;-71
2022/09/13 07:17:42;;;;;;;3.30;1.13;;;33.00;91.90;;;;;;4145795;28;20622;-76
2022/09/13 07:19:47;;;;;;;1.95;0.98;;;33.00;91.60;;;;;;4146452;28;20045;-76
2022/09/13 07:21:54;;;;;;;1.50;1.10;;;33.00;91.30;;;;;;4146101;28;20092;-77
2022/09/13 07:24:02;;;;;;;2.63;1.10;;;32.90;91.40;;;;;;4147034;28;20133;-76
2022/09/13 07:26:07;;;;;;;1.27;1.17;;;33.00;91.10;;;;;;4146316;28;20064;-76
2022/09/13 07:28:15;;;;;;;2.38;1.33;;;33.00;91.00;;;;;;4161934;28;20048;-76
2022/09/13 07:30:19;;;;;;;1.63;1.15;;;33.00;91.00;;;;;;4147737;28;20052;-77
2022/09/13 07:32:24;;;;;;;1.27;1.00;;;33.10;90.90;;;;;;4152066;28;20149;-74
2022/09/13 07:34:32;;;;;;;2.13;1.42;;;33.10;91.00;;;;;;4165682;28;20092;-75
2022/09/13 07:36:36;;;;;;;1.67;1.50;;;33.10;90.90;;;;;;4166560;28;20061;-75
2022/09/13 07:38:44;;;;;;;1.85;1.50;;;33.10;91.10;;;;;;4150693;28;20093;-74
2022/09/13 07:40:55;;;;;;;2.75;1.73;;;33.20;91.30;;;;;;4150748;28;20081;-74
2022/09/13 07:43:01;;;;;;;2.30;1.83;;;33.10;91.50;;;;;;4150948;28;20561;-74
2022/09/13 07:45:06;;;;;;;2.15;1.75;;;33.20;91.70;;;;;;4150997;28;20057;-75
2022/09/13 07:47:13;;;;;;;1.40;1.30;;;33.20;91.60;;;;;;4150188;28;20048;-75
2022/09/13 07:49:18;;;;;;;1.40;1.23;;;33.10;89.90;;;;;;4150733;28;20133;-75
2022/09/13 07:51:24;;;;;;;1.05;0.95;;;33.10;89.30;;;;;;4150480;28;20046;-74
2022/09/13 07:53:33;;;;;;;1.75;1.10;;;33.10;90.50;;;;;;4151042;28;20145;-75
2022/09/13 07:55:37;;;;;;;2.30;1.00;;;33.10;89.00;;;;;;4150863;28;20050;-75
2022/09/13 07:57:42;;;;;;;0.80;0.75;;;33.00;86.20;;;;;;4150964;28;20444;-74
2022/09/13 07:59:48;;;;;;;1.52;0.90;;;32.90;87.80;;;;;;4151048;28;20053;-75
2022/09/13 08:01:52;;;;;;;1.33;1.10;;;32.90;88.20;;;;;;4150845;28;20477;-75
2022/09/13 08:03:59;;;;;;;1.50;1.10;;;32.90;88.40;;;;;;4150196;28;20481;-74
2022/09/13 08:06:08;;;;;;;1.63;1.02;;;32.80;88.00;;;;;;4150957;28;20145;-74
2022/09/13 08:08:13;;;;;;;2.70;1.20;;;32.80;87.40;;;;;;4150912;28;20052;-75
2022/09/13 08:10:17;;;;;;;1.25;1.00;;;32.90;88.50;;;;;;4150670;28;20441;-73
2022/09/13 08:12:26;;;;;;;1.95;1.20;;;33.00;89.30;;;;;;4150398;28;20766;-74
2022/09/13 08:14:30;;;;;;;1.40;1.00;;;33.00;89.20;;;;;;4150721;28;20209;-73
2022/09/13 08:16:36;;;;;;;4.07;1.33;;;33.00;89.00;;;;;;4150251;28;20100;-73
2022/09/13 08:18:46;;;;;;;1.35;1.15;;;32.90;89.40;;;;;;4150609;28;20132;-72
2022/09/13 08:20:50;;;;;;;1.70;1.17;;;32.90;89.10;;;;;;4148753;28;20042;-73
2022/09/13 08:22:55;;;;;;;2.15;1.40;;;32.70;89.20;;;;;;4149880;28;20084;-74
2022/09/13 08:25:01;;;;;;;4.55;1.60;;;32.70;90.10;;;;;;4150189;28;20774;-73
2022/09/13 08:27:12;;;;;;;5.60;1.25;;;32.70;90.20;;;;;;4165513;28;20120;-73
2022/09/13 08:29:16;;;;;;;3.38;1.30;;;32.70;90.30;;;;;;4132123;28;20065;-74
2022/09/13 08:31:25;;;;;;;1.83;1.23;;;32.70;90.50;;;;;;4150266;28;20115;-74
2022/09/13 08:33:30;;;;;;;1.40;1.30;;;32.70;90.70;;;;;;4165251;28;20672;-74
2022/09/13 08:35:35;;;;;;;1.70;1.10;;;32.60;90.30;;;;;;4165387;28;20041;-74
2022/09/13 08:37:41;;;;;;;2.00;1.40;;;32.60;91.30;;;;;;4150163;28;20069;-74
2022/09/13 08:39:46;;;;;;;1.10;0.93;;;32.70;91.10;;;;;;4150450;28;20082;-74
2022/09/13 08:42:00;;;;;;;1.85;1.10;;;32.80;91.20;;;;;;4148493;28;20049;-74
2022/09/13 08:44:30;;;;;;;3.00;1.30;;;32.80;90.80;;;;;;4146553;28;20185;-74
2022/09/13 08:46:36;;;;;;;2.03;0.98;;;32.80;91.00;;;;;;4146690;28;20575;-74
2022/09/13 08:48:43;;;;;;;2.33;1.58;;;32.90;90.90;;;;;;4147380;28;20100;-70
2022/09/13 08:50:51;;;;;;;4.13;1.70;;;32.80;90.60;;;;;;4161387;28;20528;-72
2022/09/13 08:53:16;;;;;;;1.50;1.00;;;32.80;90.80;;;;;;4146673;28;20054;-71
2022/09/13 08:55:48;;;;;;;3.83;1.35;;;32.80;90.70;;;;;;4161041;28;20153;-72
2022/09/13 08:58:01;;;;;;;2.53;1.33;;;32.80;90.40;;;;;;4147479;28;20050;-72
2022/09/13 09:00:31;;;;;;;2.30;1.40;;;32.90;90.60;;;;;;4178652;28;20048;-71
2022/09/13 09:03:07;;;;;;;2.88;1.50;;;32.90;91.20;;;;;;4147956;28;20085;-71
2022/09/13 09:05:21;;;;;;;1.52;1.15;;;32.80;91.10;;;;;;4147703;28;20050;-71
2022/09/13 09:07:39;;;;;;;3.37;1.40;;;32.90;91.50;;;;;;4148191;28;20050;-71
2022/09/13 09:09:51;;;;;;;3.90;1.45;;;32.90;91.40;;;;;;4148057;28;20284;-71
2022/09/13 09:12:02;;;;;;;2.75;2.00;;;32.90;91.60;;;;;;4147888;28;20049;-71
2022/09/13 09:14:37;;;;;;;2.55;1.67;;;32.90;91.60;;;;;;4162995;28;20091;-72
2022/09/13 09:16:48;;;;;;;1.83;1.40;;;32.90;90.80;;;;;;4147891;28;20367;-71
2022/09/13 09:18:58;;;;;;;2.53;1.60;;;32.90;91.20;;;;;;4177801;28;20053;-71
2022/09/13 09:21:03;;;;;;;2.30;1.52;;;32.90;91.30;;;;;;4146766;28;20125;-71
2022/09/13 09:23:17;;;;;;;2.05;1.70;;;32.90;91.50;;;;;;4146811;28;20128;-71
2022/09/13 09:25:26;;;;;;;2.60;1.63;;;32.90;91.20;;;;;;4145537;28;20100;-70
2022/09/13 09:27:31;;;;;;;1.50;1.38;;;32.90;91.50;;;;;;4147211;28;20531;-71
2022/09/13 09:29:35;;;;;;;6.85;2.30;;;32.80;91.40;;;;;;4158914;28;20510;-72
2022/09/13 09:32:08;;;;;;;5.50;1.98;;;32.70;91.50;;;;;;4146878;28;20049;-73
2022/09/13 09:34:41;;;;;;;1.95;1.60;;;32.80;91.90;;;;;;4145505;28;20386;-72
2022/09/13 09:37:15;;;;;;;2.35;1.77;;;32.60;90.70;;;;;;4146272;28;20137;-73
2022/09/13 09:39:19;;;;;;;2.78;1.60;;;32.70;90.60;;;;;;4146029;28;20057;-77
2022/09/13 09:41:31;;;;;;;2.28;1.70;;;32.70;89.30;;;;;;4145583;28;20049;-73
2022/09/13 09:43:41;;;;;;;2.00;1.53;;;32.70;90.30;;;;;;4146323;28;20088;-76
2022/09/13 09:45:46;;;;;;;3.90;1.70;;;32.80;90.50;;;;;;4145987;28;20049;-75
2022/09/13 09:47:51;;;;;;;2.05;1.70;;;32.90;90.80;;;;;;4143872;28;20053;-73
2022/09/13 09:50:16;;;;;;;2.33;1.83;;;33.00;91.20;;;;;;4146728;28;20100;-74
2022/09/13 09:52:23;;;;;;;2.13;1.60;;;33.00;91.60;;;;;;4146750;28;20471;-73
2022/09/13 09:54:29;;;;;;;2.60;2.17;;;33.00;91.90;;;;;;4146467;28;20072;-73
2022/09/13 09:56:33;;;;;;;3.33;1.90;;;33.00;92.20;;;;;;4177494;28;20069;-73
2022/09/13 09:58:45;;;;;;;2.88;1.90;;;33.00;92.30;;;;;;4146672;28;20042;-74
2022/09/13 10:00:56;;;;;;;2.67;2.05;;;33.00;92.30;;;;;;4146713;28;20077;-75
2022/09/13 10:03:17;;;;;;;2.20;1.92;;;33.00;92.50;;;;;;4146458;28;20496;-77
2022/09/13 10:05:22;;;;;;;3.38;1.67;;;33.00;92.50;;;;;;4146427;28;20041;-74
2022/09/13 10:07:31;;;;;;;7.50;2.35;;;33.00;92.30;;;;;;4146703;28;20397;-73
2022/09/13 10:09:38;;;;;;;5.53;1.88;;;33.00;92.30;;;;;;4147050;28;20042;-75
2022/09/13 10:11:45;;;;;;;3.35;2.30;;;33.00;92.40;;;;;;4162083;28;20045;-76
2022/09/13 10:14:01;;;;;;;3.90;3.22;;;32.90;92.40;;;;;;4147082;28;20115;-75
2022/09/13 10:16:27;;;;;;;5.90;2.50;;;32.90;92.60;;;;;;4146474;28;20068;-76
2022/09/13 10:18:34;;;;;;;5.60;2.60;;;32.80;92.90;;;;;;4146926;28;20053;-74
2022/09/13 10:21:10;;;;;;;10.27;3.20;;;32.80;93.00;;;;;;4146866;28;20429;-73
2022/09/13 10:23:19;;;;;;;8.82;2.60;;;32.80;92.90;;;;;;4142360;28;20444;-74
2022/09/13 10:25:24;;;;;;;6.55;2.15;;;32.70;93.10;;;;;;4160769;28;20050;-75
2022/09/13 10:27:41;;;;;;;5.50;2.13;;;32.60;93.20;;;;;;4131506;28;20462;-74
2022/09/13 10:29:50;;;;;;;7.43;3.03;;;32.70;93.50;;;;;;4153898;28;20586;-73
2022/09/13 10:31:57;;;;;;;6.40;2.22;;;32.60;93.40;;;;;;4138689;28;20049;-73
2022/09/13 10:34:23;;;;;;;4.95;2.42;;;32.50;93.40;;;;;;4142870;28;20069;-73
2022/09/13 10:36:35;;;;;;;12.73;2.65;;;32.50;93.60;;;;;;4139824;28;20058;-74
2022/09/13 10:39:06;;;;;;;6.55;2.50;;;32.50;93.80;;;;;;4134516;28;20444;-75
2022/09/13 10:41:20;;;;;;;5.07;2.30;;;32.50;94.10;;;;;;4177373;28;20075;-75
2022/09/13 10:43:28;;;;;;;8.85;2.45;;;32.40;94.30;;;;;;4156217;28;20109;-74
2022/09/13 10:45:33;;;;;;;4.40;2.15;;;32.50;94.60;;;;;;4137022;28;20474;-74
2022/09/13 10:47:50;;;;;;;33.03;4.00;;;32.40;94.90;;;;;;4160922;28;20506;-75
2022/09/13 10:50:01;;;;;;;4.88;2.40;;;32.40;95.30;;;;;;4168515;28;20056;-76
2022/09/13 10:52:29;;;;;;;4.70;2.38;;;32.30;95.40;;;;;;4132976;28;20638;-76
2022/09/13 10:54:34;;;;;;;6.63;2.67;;;32.30;95.70;;;;;;4137967;28;20061;-75
2022/09/13 10:56:45;;;;;;;6.57;3.60;;;32.30;96.00;;;;;;4127852;28;20528;-75
2022/09/13 10:58:49;;;;;;;7.90;5.35;;;32.20;96.10;;;;;;4135170;28;20426;-75
2022/09/13 11:01:18;;;;;;;10.85;6.65;;;32.20;96.10;;;;;;4144576;28;20132;-75
2022/09/13 11:03:51;;;;;;;12.85;7.22;;;32.10;96.10;;;;;;4146336;28;20049;-75
2022/09/13 11:06:25;;;;;;;11.65;7.70;;;32.00;96.20;;;;;;4145687;28;20428;-74
2022/09/13 11:08:42;;;;;;;14.55;7.90;;;32.00;96.30;;;;;;4177115;28;20135;-74
2022/09/13 11:11:10;;;;;;;10.70;7.10;;;32.00;96.50;;;;;;4145686;28;20072;-73
2022/09/13 11:13:54;;;;;;;11.55;5.45;;;31.90;96.80;;;;;;4146251;28;20081;-74
2022/09/13 11:16:33;;;;;;;8.93;5.85;;;31.90;97.00;;;;;;4145386;28;20563;-73
2022/09/13 11:19:09;;;;;;;14.68;8.25;;;31.80;97.10;;;;;;4146291;28;20057;-74
2022/09/13 11:21:38;;;;;;;9.88;6.60;;;31.80;97.30;;;;;;4159836;28;20038;-75
2022/09/13 11:24:04;;;;;;;10.68;6.70;;;31.70;97.50;;;;;;4146064;28;20080;-74
2022/09/13 11:26:41;;;;;;;9.55;5.90;;;31.70;97.70;;;;;;4145582;28;20042;-74
2022/09/13 11:29:19;;;;;;;7.25;4.35;;;31.60;97.80;;;;;;4144346;28;20045;-75